sensor_id;sensor_type;location;lat;lon;timestamp;temperature;humidity
29201;DHT22;16244;51.956;12.980;2022-09-16T00:01:21;12.10;99.90
29201;DHT22;16244;51.956;12.980;2022-09-16T00:03:52;12.10;99.90
29201;DHT22;16244;51.956;12.980;2022-09-16T00:06:23;12.10;99.90
29201;DHT22;16244;51.956;12.980;2022-09-16T00:08:51;12.10;99.90
29201;DHT22;16244;51.956;12.980;2022-09-16T00:11:20;12.10;99.90
29201;DHT22;16244;51.956;12.980;2022-09-16T00:13:47;12.00;99.90
29201;DHT22;16244;51.956;12.980;2022-09-16T00:16:19;11.90;99.90
29201;DHT22;16244;51.956;12.980;2022-09-16T00:18:47;12.00;99.90
29201;DHT22;16244;51.956;12.980;2022-09-16T00:21:14;11.90;99.90
29201;DHT22;16244;51.956;12.980;2022-09-16T00:23:43;11.90;99.90
29201;DHT22;16244;51.956;12.980;2022-09-16T00:26:10;11.80;99.90
29201;DHT22;16244;51.956;12.980;2022-09-16T00:28:37;11.80;99.90
29201;DHT22;16244;51.956;12.980;2022-09-16T00:31:04;11.70;99.90
29201;DHT22;16244;51.956;12.980;2022-09-16T00:33:31;11.70;99.90
29201;DHT22;16244;51.956;12.980;2022-09-16T00:36:06;11.70;99.90
29201;DHT22;16244;51.956;12.980;2022-09-16T00:38:34;11.70;99.90
29201;DHT22;16244;51.956;12.980;2022-09-16T00:41:03;11.70;99.90
29201;DHT22;16244;51.956;12.980;2022-09-16T00:43:46;11.70;99.90
29201;DHT22;16244;51.956;12.980;2022-09-16T00:46:14;11.70;99.90
29201;DHT22;16244;51.956;12.980;2022-09-16T00:48:42;11.60;99.90
29201;DHT22;16244;51.956;12.980;2022-09-16T00:51:12;11.60;99.90
29201;DHT22;16244;51.956;12.980;2022-09-16T00:53:43;11.60;99.90
29201;DHT22;16244;51.956;12.980;2022-09-16T00:56:17;11.60;99.90
29201;DHT22;16244;51.956;12.980;2022-09-16T00:58:50;11.70;99.90
29201;DHT22;16244;51.956;12.980;2022-09-16T01:01:19;11.70;99.90
29201;DHT22;16244;51.956;12.980;2022-09-16T01:03:51;11.70;99.90
29201;DHT22;16244;51.956;12.980;2022-09-16T01:06:20;11.80;99.90
29201;DHT22;16244;51.956;12.980;2022-09-16T01:08:49;11.80;99.90
29201;DHT22;16244;51.956;12.980;2022-09-16T01:11:18;11.80;99.90
29201;DHT22;16244;51.956;12.980;2022-09-16T01:13:45;11.70;99.90
29201;DHT22;16244;51.956;12.980;2022-09-16T01:16:17;11.70;99.90
29201;DHT22;16244;51.956;12.980;2022-09-16T01:18:53;11.60;99.90
29201;DHT22;16244;51.956;12.980;2022-09-16T01:21:34;11.60;99.90
29201;DHT22;16244;51.956;12.980;2022-09-16T01:24:22;11.60;99.90
29201;DHT22;16244;51.956;12.980;2022-09-16T01:27:27;11.60;99.90
29201;DHT22;16244;51.956;12.980;2022-09-16T01:30:17;11.50;99.90
29201;DHT22;16244;51.956;12.980;2022-09-16T01:32:57;11.50;99.90
29201;DHT22;16244;51.956;12.980;2022-09-16T01:38:53;11.50;99.90
29201;DHT22;16244;51.956;12.980;2022-09-16T01:41:26;11.60;99.90
29201;DHT22;16244;51.956;12.980;2022-09-16T01:43:59;11.60;99.90
29201;DHT22;16244;51.956;12.980;2022-09-16T01:46:34;11.60;99.90
29201;DHT22;16244;51.956;12.980;2022-09-16T01:49:11;11.60;99.90
29201;DHT22;16244;51.956;12.980;2022-09-16T01:51:43;11.60;99.90
29201;DHT22;16244;51.956;12.980;2022-09-16T01:54:19;11.60;99.90
29201;DHT22;16244;51.956;12.980;2022-09-16T01:56:52;11.60;99.90
29201;DHT22;16244;51.956;12.980;2022-09-16T01:59:25;11.60;99.90
29201;DHT22;16244;51.956;12.980;2022-09-16T02:01:58;11.50;99.90
29201;DHT22;16244;51.956;12.980;2022-09-16T02:04:30;11.50;99.90
29201;DHT22;16244;51.956;12.980;2022-09-16T02:07:00;11.50;99.90
29201;DHT22;16244;51.956;12.980;2022-09-16T02:09:31;11.40;99.90
29201;DHT22;16244;51.956;12.980;2022-09-16T02:12:03;11.30;99.90
29201;DHT22;16244;51.956;12.980;2022-09-16T02:14:33;11.30;99.90
29201;DHT22;16244;51.956;12.980;2022-09-16T02:17:04;11.30;99.90
29201;DHT22;16244;51.956;12.980;2022-09-16T02:19:37;11.30;99.90
29201;DHT22;16244;51.956;12.980;2022-09-16T02:22:11;11.30;99.90
29201;DHT22;16244;51.956;12.980;2022-09-16T02:24:39;11.20;99.90
29201;DHT22;16244;51.956;12.980;2022-09-16T02:27:11;11.20;99.90
29201;DHT22;16244;51.956;12.980;2022-09-16T02:29:45;11.20;99.90
29201;DHT22;16244;51.956;12.980;2022-09-16T02:32:14;11.20;99.90
29201;DHT22;16244;51.956;12.980;2022-09-16T02:34:45;11.20;99.90
29201;DHT22;16244;51.956;12.980;2022-09-16T02:37:16;11.20;99.90
29201;DHT22;16244;51.956;12.980;2022-09-16T02:39:47;11.20;99.90
29201;DHT22;16244;51.956;12.980;2022-09-16T02:42:15;11.10;99.90
29201;DHT22;16244;51.956;12.980;2022-09-16T02:44:45;11.10;99.90
29201;DHT22;16244;51.956;12.980;2022-09-16T02:47:17;11.00;99.90
29201;DHT22;16244;51.956;12.980;2022-09-16T02:49:55;11.00;99.90
29201;DHT22;16244;51.956;12.980;2022-09-16T02:52:28;11.00;99.90
29201;DHT22;16244;51.956;12.980;2022-09-16T02:55:03;11.00;99.90
29201;DHT22;16244;51.956;12.980;2022-09-16T02:57:31;11.00;99.90
29201;DHT22;16244;51.956;12.980;2022-09-16T02:59:58;11.00;99.90
29201;DHT22;16244;51.956;12.980;2022-09-16T03:02:25;11.00;99.90
29201;DHT22;16244;51.956;12.980;2022-09-16T03:04:54;10.90;99.90
29201;DHT22;16244;51.956;12.980;2022-09-16T03:07:22;10.90;99.90
29201;DHT22;16244;51.956;12.980;2022-09-16T03:09:49;10.90;99.90
29201;DHT22;16244;51.956;12.980;2022-09-16T03:12:34;10.90;99.90
29201;DHT22;16244;51.956;12.980;2022-09-16T03:18:26;10.90;99.90
29201;DHT22;16244;51.956;12.980;2022-09-16T03:20:59;10.90;99.90
29201;DHT22;16244;51.956;12.980;2022-09-16T03:23:39;10.90;99.90
29201;DHT22;16244;51.956;12.980;2022-09-16T03:26:16;10.90;99.90
29201;DHT22;16244;51.956;12.980;2022-09-16T03:28:49;10.90;99.90
29201;DHT22;16244;51.956;12.980;2022-09-16T03:31:27;10.90;99.90
29201;DHT22;16244;51.956;12.980;2022-09-16T03:34:03;10.90;99.90
29201;DHT22;16244;51.956;12.980;2022-09-16T03:36:38;10.90;99.90
29201;DHT22;16244;51.956;12.980;2022-09-16T03:39:07;10.90;99.90
29201;DHT22;16244;51.956;12.980;2022-09-16T03:41:36;10.90;99.90
29201;DHT22;16244;51.956;12.980;2022-09-16T03:44:03;10.90;99.90
29201;DHT22;16244;51.956;12.980;2022-09-16T03:46:30;10.90;99.90
29201;DHT22;16244;51.956;12.980;2022-09-16T03:48:58;10.90;99.90
29201;DHT22;16244;51.956;12.980;2022-09-16T03:51:25;10.90;99.90
29201;DHT22;16244;51.956;12.980;2022-09-16T03:53:54;10.90;99.90
29201;DHT22;16244;51.956;12.980;2022-09-16T03:56:22;10.90;99.90
29201;DHT22;16244;51.956;12.980;2022-09-16T03:58:49;10.90;99.90
29201;DHT22;16244;51.956;12.980;2022-09-16T04:01:16;11.00;99.90
29201;DHT22;16244;51.956;12.980;2022-09-16T04:03:44;10.90;99.90
29201;DHT22;16244;51.956;12.980;2022-09-16T04:06:11;11.00;99.90
29201;DHT22;16244;51.956;12.980;2022-09-16T04:08:38;11.00;99.90
29201;DHT22;16244;51.956;12.980;2022-09-16T04:11:06;10.90;99.90
29201;DHT22;16244;51.956;12.980;2022-09-16T04:13:34;10.90;99.90
29201;DHT22;16244;51.956;12.980;2022-09-16T04:16:03;10.90;99.90
29201;DHT22;16244;51.956;12.980;2022-09-16T04:18:30;10.90;99.90
29201;DHT22;16244;51.956;12.980;2022-09-16T04:20:58;10.90;99.90
29201;DHT22;16244;51.956;12.980;2022-09-16T04:23:27;10.90;99.90
29201;DHT22;16244;51.956;12.980;2022-09-16T04:25:55;10.90;99.90
29201;DHT22;16244;51.956;12.980;2022-09-16T04:28:23;10.80;99.90
29201;DHT22;16244;51.956;12.980;2022-09-16T04:30:50;10.80;99.90
29201;DHT22;16244;51.956;12.980;2022-09-16T04:33:18;10.80;99.90
29201;DHT22;16244;51.956;12.980;2022-09-16T04:35:45;10.80;99.90
29201;DHT22;16244;51.956;12.980;2022-09-16T04:38:12;10.80;99.90
29201;DHT22;16244;51.956;12.980;2022-09-16T04:40:39;10.80;99.90
29201;DHT22;16244;51.956;12.980;2022-09-16T04:43:07;10.80;99.90
29201;DHT22;16244;51.956;12.980;2022-09-16T04:45:35;10.80;99.90
29201;DHT22;16244;51.956;12.980;2022-09-16T04:48:02;10.80;99.90
29201;DHT22;16244;51.956;12.980;2022-09-16T04:50:30;10.80;99.90
29201;DHT22;16244;51.956;12.980;2022-09-16T04:52:57;10.80;99.90
29201;DHT22;16244;51.956;12.980;2022-09-16T04:55:24;10.80;99.90
29201;DHT22;16244;51.956;12.980;2022-09-16T04:57:51;10.70;99.90
29201;DHT22;16244;51.956;12.980;2022-09-16T05:00:18;10.70;99.90
29201;DHT22;16244;51.956;12.980;2022-09-16T05:02:47;10.70;99.90
29201;DHT22;16244;51.956;12.980;2022-09-16T05:05:14;10.70;99.90
29201;DHT22;16244;51.956;12.980;2022-09-16T05:07:42;10.70;99.90
29201;DHT22;16244;51.956;12.980;2022-09-16T05:10:10;10.70;99.90
29201;DHT22;16244;51.956;12.980;2022-09-16T05:12:37;10.70;99.90
29201;DHT22;16244;51.956;12.980;2022-09-16T05:15:05;10.70;99.90
29201;DHT22;16244;51.956;12.980;2022-09-16T05:17:32;10.80;99.90
29201;DHT22;16244;51.956;12.980;2022-09-16T05:20:01;10.80;99.90
29201;DHT22;16244;51.956;12.980;2022-09-16T05:22:28;10.80;99.90
29201;DHT22;16244;51.956;12.980;2022-09-16T05:24:55;10.80;99.90
29201;DHT22;16244;51.956;12.980;2022-09-16T05:27:22;10.80;99.90
29201;DHT22;16244;51.956;12.980;2022-09-16T05:29:52;10.80;99.90
29201;DHT22;16244;51.956;12.980;2022-09-16T05:32:19;10.80;99.90
29201;DHT22;16244;51.956;12.980;2022-09-16T05:34:47;10.80;99.90
29201;DHT22;16244;51.956;12.980;2022-09-16T05:37:16;10.80;99.90
29201;DHT22;16244;51.956;12.980;2022-09-16T05:39:43;10.90;99.90
29201;DHT22;16244;51.956;12.980;2022-09-16T05:42:11;10.80;99.90
29201;DHT22;16244;51.956;12.980;2022-09-16T05:44:38;10.90;99.90
29201;DHT22;16244;51.956;12.980;2022-09-16T05:47:05;10.90;99.90
29201;DHT22;16244;51.956;12.980;2022-09-16T05:49:32;10.90;99.90
29201;DHT22;16244;51.956;12.980;2022-09-16T05:51:59;11.00;99.90
29201;DHT22;16244;51.956;12.980;2022-09-16T05:54:28;11.00;99.90
29201;DHT22;16244;51.956;12.980;2022-09-16T05:56:56;11.00;99.90
29201;DHT22;16244;51.956;12.980;2022-09-16T05:59:23;11.10;99.90
29201;DHT22;16244;51.956;12.980;2022-09-16T06:01:51;11.10;99.90
29201;DHT22;16244;51.956;12.980;2022-09-16T06:04:18;11.10;99.90
29201;DHT22;16244;51.956;12.980;2022-09-16T06:06:45;11.20;99.90
29201;DHT22;16244;51.956;12.980;2022-09-16T06:09:14;11.30;99.90
29201;DHT22;16244;51.956;12.980;2022-09-16T06:11:44;11.50;99.90
29201;DHT22;16244;51.956;12.980;2022-09-16T06:14:13;11.70;99.90
29201;DHT22;16244;51.956;12.980;2022-09-16T06:16:40;11.70;99.90
29201;DHT22;16244;51.956;12.980;2022-09-16T06:19:10;11.80;99.90
29201;DHT22;16244;51.956;12.980;2022-09-16T06:21:38;11.90;99.90
29201;DHT22;16244;51.956;12.980;2022-09-16T06:24:06;12.00;99.90
29201;DHT22;16244;51.956;12.980;2022-09-16T06:26:34;12.10;99.90
29201;DHT22;16244;51.956;12.980;2022-09-16T06:29:03;12.20;99.90
29201;DHT22;16244;51.956;12.980;2022-09-16T06:31:32;12.30;99.90
29201;DHT22;16244;51.956;12.980;2022-09-16T06:33:59;12.30;99.90
29201;DHT22;16244;51.956;12.980;2022-09-16T06:36:29;12.40;99.90
29201;DHT22;16244;51.956;12.980;2022-09-16T06:38:56;12.40;99.90
29201;DHT22;16244;51.956;12.980;2022-09-16T06:41:24;12.40;99.90
29201;DHT22;16244;51.956;12.980;2022-09-16T06:43:51;12.50;99.90
29201;DHT22;16244;51.956;12.980;2022-09-16T06:46:21;12.70;99.90
29201;DHT22;16244;51.956;12.980;2022-09-16T06:48:50;12.70;99.90
29201;DHT22;16244;51.956;12.980;2022-09-16T06:51:20;12.80;99.90
29201;DHT22;16244;51.956;12.980;2022-09-16T06:53:48;12.90;99.90
29201;DHT22;16244;51.956;12.980;2022-09-16T06:56:17;12.90;99.90
29201;DHT22;16244;51.956;12.980;2022-09-16T06:58:46;13.00;99.90
29201;DHT22;16244;51.956;12.980;2022-09-16T07:01:16;13.00;99.90
29201;DHT22;16244;51.956;12.980;2022-09-16T07:03:46;13.00;99.90
29201;DHT22;16244;51.956;12.980;2022-09-16T07:06:14;13.00;99.90
29201;DHT22;16244;51.956;12.980;2022-09-16T07:08:42;13.00;99.90
29201;DHT22;16244;51.956;12.980;2022-09-16T07:11:10;13.10;99.90
29201;DHT22;16244;51.956;12.980;2022-09-16T07:13:38;13.10;99.90
29201;DHT22;16244;51.956;12.980;2022-09-16T07:16:07;13.10;99.90
29201;DHT22;16244;51.956;12.980;2022-09-16T07:18:35;13.10;99.90
29201;DHT22;16244;51.956;12.980;2022-09-16T07:21:05;13.20;99.90
29201;DHT22;16244;51.956;12.980;2022-09-16T07:23:34;13.40;99.90
29201;DHT22;16244;51.956;12.980;2022-09-16T07:26:03;13.70;99.90
29201;DHT22;16244;51.956;12.980;2022-09-16T07:28:31;13.90;99.90
29201;DHT22;16244;51.956;12.980;2022-09-16T07:31:00;14.30;99.90
29201;DHT22;16244;51.956;12.980;2022-09-16T07:33:27;14.80;99.90
29201;DHT22;16244;51.956;12.980;2022-09-16T07:35:57;15.40;99.90
29201;DHT22;16244;51.956;12.980;2022-09-16T07:38:27;15.70;99.90
29201;DHT22;16244;51.956;12.980;2022-09-16T07:40:55;15.80;99.90
29201;DHT22;16244;51.956;12.980;2022-09-16T07:43:22;15.80;99.90
29201;DHT22;16244;51.956;12.980;2022-09-16T07:45:54;15.60;99.90
29201;DHT22;16244;51.956;12.980;2022-09-16T07:48:22;15.60;99.90
29201;DHT22;16244;51.956;12.980;2022-09-16T07:50:54;15.60;99.90
29201;DHT22;16244;51.956;12.980;2022-09-16T07:53:21;15.60;99.90
29201;DHT22;16244;51.956;12.980;2022-09-16T07:55:50;15.40;99.90
29201;DHT22;16244;51.956;12.980;2022-09-16T07:58:17;15.20;99.90
29201;DHT22;16244;51.956;12.980;2022-09-16T08:00:45;15.40;99.90
29201;DHT22;16244;51.956;12.980;2022-09-16T08:03:13;15.70;99.90
29201;DHT22;16244;51.956;12.980;2022-09-16T08:05:40;15.70;99.90
29201;DHT22;16244;51.956;12.980;2022-09-16T08:08:07;15.80;99.90
29201;DHT22;16244;51.956;12.980;2022-09-16T08:10:35;15.70;99.90
29201;DHT22;16244;51.956;12.980;2022-09-16T08:13:04;15.60;99.90
29201;DHT22;16244;51.956;12.980;2022-09-16T08:15:32;15.50;99.90
29201;DHT22;16244;51.956;12.980;2022-09-16T08:17:59;15.30;99.90
29201;DHT22;16244;51.956;12.980;2022-09-16T08:20:26;15.30;99.90
29201;DHT22;16244;51.956;12.980;2022-09-16T08:22:53;15.40;99.90
29201;DHT22;16244;51.956;12.980;2022-09-16T08:25:20;15.40;99.90
29201;DHT22;16244;51.956;12.980;2022-09-16T08:27:47;15.30;99.90
29201;DHT22;16244;51.956;12.980;2022-09-16T08:30:16;15.20;99.90
29201;DHT22;16244;51.956;12.980;2022-09-16T08:32:43;15.20;99.90
29201;DHT22;16244;51.956;12.980;2022-09-16T08:35:10;15.30;99.90
29201;DHT22;16244;51.956;12.980;2022-09-16T08:37:39;15.30;99.90
29201;DHT22;16244;51.956;12.980;2022-09-16T08:40:07;15.30;99.90
29201;DHT22;16244;51.956;12.980;2022-09-16T08:42:45;15.40;99.90
29201;DHT22;16244;51.956;12.980;2022-09-16T08:45:23;15.50;99.90
29201;DHT22;16244;51.956;12.980;2022-09-16T08:48:06;15.60;99.90
29201;DHT22;16244;51.956;12.980;2022-09-16T08:50:38;15.80;99.90
29201;DHT22;16244;51.956;12.980;2022-09-16T08:53:09;15.90;99.90
29201;DHT22;16244;51.956;12.980;2022-09-16T08:55:41;16.10;99.90
29201;DHT22;16244;51.956;12.980;2022-09-16T08:58:14;16.40;99.90
29201;DHT22;16244;51.956;12.980;2022-09-16T09:00:45;16.50;99.90
29201;DHT22;16244;51.956;12.980;2022-09-16T09:03:17;16.40;99.90
29201;DHT22;16244;51.956;12.980;2022-09-16T09:05:50;16.00;99.90
29201;DHT22;16244;51.956;12.980;2022-09-16T09:08:26;15.90;99.90
29201;DHT22;16244;51.956;12.980;2022-09-16T09:10:58;15.90;99.90
29201;DHT22;16244;51.956;12.980;2022-09-16T09:13:47;15.80;99.90
29201;DHT22;16244;51.956;12.980;2022-09-16T09:16:29;15.70;99.90
29201;DHT22;16244;51.956;12.980;2022-09-16T09:19:06;15.60;99.90
29201;DHT22;16244;51.956;12.980;2022-09-16T09:21:41;15.50;99.90
29201;DHT22;16244;51.956;12.980;2022-09-16T09:24:25;15.40;99.90
29201;DHT22;16244;51.956;12.980;2022-09-16T09:27:00;15.30;99.90
29201;DHT22;16244;51.956;12.980;2022-09-16T09:29:44;15.20;99.90
29201;DHT22;16244;51.956;12.980;2022-09-16T09:32:21;15.00;99.90
29201;DHT22;16244;51.956;12.980;2022-09-16T09:35:10;15.10;99.90
29201;DHT22;16244;51.956;12.980;2022-09-16T09:37:53;15.30;99.90
29201;DHT22;16244;51.956;12.980;2022-09-16T09:40:31;15.90;99.90
29201;DHT22;16244;51.956;12.980;2022-09-16T09:43:04;16.40;99.90
29201;DHT22;16244;51.956;12.980;2022-09-16T09:45:35;16.80;99.90
29201;DHT22;16244;51.956;12.980;2022-09-16T09:48:13;17.10;99.90
29201;DHT22;16244;51.956;12.980;2022-09-16T09:50:43;17.50;99.90
29201;DHT22;16244;51.956;12.980;2022-09-16T09:53:13;17.90;99.90
29201;DHT22;16244;51.956;12.980;2022-09-16T09:55:43;18.30;99.90
29201;DHT22;16244;51.956;12.980;2022-09-16T09:58:23;19.00;99.90
29201;DHT22;16244;51.956;12.980;2022-09-16T10:00:53;19.90;99.90
29201;DHT22;16244;51.956;12.980;2022-09-16T10:03:28;20.30;99.90
29201;DHT22;16244;51.956;12.980;2022-09-16T10:05:55;20.70;99.90
29201;DHT22;16244;51.956;12.980;2022-09-16T10:08:26;20.40;99.90
29201;DHT22;16244;51.956;12.980;2022-09-16T10:10:56;20.40;99.90
29201;DHT22;16244;51.956;12.980;2022-09-16T10:13:26;20.00;99.90
29201;DHT22;16244;51.956;12.980;2022-09-16T10:16:06;19.40;99.90
29201;DHT22;16244;51.956;12.980;2022-09-16T10:18:36;19.60;99.90
29201;DHT22;16244;51.956;12.980;2022-09-16T10:21:05;20.00;99.90
29201;DHT22;16244;51.956;12.980;2022-09-16T10:23:34;20.50;99.90
29201;DHT22;16244;51.956;12.980;2022-09-16T10:26:04;21.00;99.90
29201;DHT22;16244;51.956;12.980;2022-09-16T10:28:32;21.40;99.90
29201;DHT22;16244;51.956;12.980;2022-09-16T10:31:00;21.70;99.90
29201;DHT22;16244;51.956;12.980;2022-09-16T10:33:29;21.50;99.90
29201;DHT22;16244;51.956;12.980;2022-09-16T10:36:00;20.70;99.90
29201;DHT22;16244;51.956;12.980;2022-09-16T10:38:34;20.00;99.90
29201;DHT22;16244;51.956;12.980;2022-09-16T10:41:06;20.40;99.90
29201;DHT22;16244;51.956;12.980;2022-09-16T10:43:36;21.10;99.90
29201;DHT22;16244;51.956;12.980;2022-09-16T10:46:04;21.40;99.90
29201;DHT22;16244;51.956;12.980;2022-09-16T10:48:33;20.90;99.90
29201;DHT22;16244;51.956;12.980;2022-09-16T10:51:22;20.30;99.90
29201;DHT22;16244;51.956;12.980;2022-09-16T10:53:59;19.60;99.90
29201;DHT22;16244;51.956;12.980;2022-09-16T10:56:28;19.20;99.90
29201;DHT22;16244;51.956;12.980;2022-09-16T10:59:03;18.80;99.90
29201;DHT22;16244;51.956;12.980;2022-09-16T11:01:39;18.40;99.90
29201;DHT22;16244;51.956;12.980;2022-09-16T11:07:09;18.50;99.90
29201;DHT22;16244;51.956;12.980;2022-09-16T11:09:46;19.20;99.90
29201;DHT22;16244;51.956;12.980;2022-09-16T11:15:18;19.10;99.90
29201;DHT22;16244;51.956;12.980;2022-09-16T11:18:00;18.90;99.90
29201;DHT22;16244;51.956;12.980;2022-09-16T11:20:43;18.70;99.90
29201;DHT22;16244;51.956;12.980;2022-09-16T11:23:24;18.60;99.90
29201;DHT22;16244;51.956;12.980;2022-09-16T11:25:56;18.50;99.90
29201;DHT22;16244;51.956;12.980;2022-09-16T11:28:45;18.40;99.90
29201;DHT22;16244;51.956;12.980;2022-09-16T11:31:21;18.40;99.90
29201;DHT22;16244;51.956;12.980;2022-09-16T11:33:56;18.40;99.90
29201;DHT22;16244;51.956;12.980;2022-09-16T11:36:39;18.40;99.90
29201;DHT22;16244;51.956;12.980;2022-09-16T11:39:25;18.40;99.90
29201;DHT22;16244;51.956;12.980;2022-09-16T11:41:58;18.40;99.90
29201;DHT22;16244;51.956;12.980;2022-09-16T11:44:37;18.40;99.90
29201;DHT22;16244;51.956;12.980;2022-09-16T11:47:20;18.60;99.90
29201;DHT22;16244;51.956;12.980;2022-09-16T11:50:02;18.80;99.90
29201;DHT22;16244;51.956;12.980;2022-09-16T11:52:41;18.90;99.90
29201;DHT22;16244;51.956;12.980;2022-09-16T11:55:22;19.00;99.90
29201;DHT22;16244;51.956;12.980;2022-09-16T11:57:57;18.90;99.90
29201;DHT22;16244;51.956;12.980;2022-09-16T12:00:28;18.70;99.90
29201;DHT22;16244;51.956;12.980;2022-09-16T12:03:01;18.80;99.90
29201;DHT22;16244;51.956;12.980;2022-09-16T12:05:34;18.80;99.90
29201;DHT22;16244;51.956;12.980;2022-09-16T12:08:07;18.70;99.90
29201;DHT22;16244;51.956;12.980;2022-09-16T12:10:42;18.60;99.90
29201;DHT22;16244;51.956;12.980;2022-09-16T12:13:14;18.50;99.90
29201;DHT22;16244;51.956;12.980;2022-09-16T12:15:46;18.40;99.90
29201;DHT22;16244;51.956;12.980;2022-09-16T12:18:16;18.30;99.90
29201;DHT22;16244;51.956;12.980;2022-09-16T12:20:48;18.30;99.90
29201;DHT22;16244;51.956;12.980;2022-09-16T12:23:17;18.30;99.90
29201;DHT22;16244;51.956;12.980;2022-09-16T12:25:55;18.40;99.90
29201;DHT22;16244;51.956;12.980;2022-09-16T12:28:30;18.30;99.90
29201;DHT22;16244;51.956;12.980;2022-09-16T12:31:05;18.30;99.90
29201;DHT22;16244;51.956;12.980;2022-09-16T12:33:38;18.40;99.90
29201;DHT22;16244;51.956;12.980;2022-09-16T12:36:09;18.40;99.90
29201;DHT22;16244;51.956;12.980;2022-09-16T12:38:36;18.30;99.90
29201;DHT22;16244;51.956;12.980;2022-09-16T12:41:21;18.20;99.90
29201;DHT22;16244;51.956;12.980;2022-09-16T12:44:07;18.20;99.90
29201;DHT22;16244;51.956;12.980;2022-09-16T12:46:58;18.30;99.90
29201;DHT22;16244;51.956;12.980;2022-09-16T12:49:53;18.10;99.90
29201;DHT22;16244;51.956;12.980;2022-09-16T12:52:31;18.00;99.90
29201;DHT22;16244;51.956;12.980;2022-09-16T13:00:54;17.50;99.90
29201;DHT22;16244;51.956;12.980;2022-09-16T13:03:26;17.40;99.90
29201;DHT22;16244;51.956;12.980;2022-09-16T13:05:54;17.20;99.90
29201;DHT22;16244;51.956;12.980;2022-09-16T13:08:25;17.20;99.90
29201;DHT22;16244;51.956;12.980;2022-09-16T13:10:55;17.20;99.90
29201;DHT22;16244;51.956;12.980;2022-09-16T13:13:30;17.50;99.90
29201;DHT22;16244;51.956;12.980;2022-09-16T13:15:59;17.60;99.90
29201;DHT22;16244;51.956;12.980;2022-09-16T13:18:39;17.70;99.90
29201;DHT22;16244;51.956;12.980;2022-09-16T13:21:16;17.80;99.90
29201;DHT22;16244;51.956;12.980;2022-09-16T13:23:52;17.70;99.90
29201;DHT22;16244;51.956;12.980;2022-09-16T13:26:23;17.60;99.90
29201;DHT22;16244;51.956;12.980;2022-09-16T13:28:51;17.50;99.90
29201;DHT22;16244;51.956;12.980;2022-09-16T13:31:28;17.60;99.90
29201;DHT22;16244;51.956;12.980;2022-09-16T13:34:13;17.50;99.90
29201;DHT22;16244;51.956;12.980;2022-09-16T13:36:41;17.60;99.90
29201;DHT22;16244;51.956;12.980;2022-09-16T13:39:11;17.60;99.90
29201;DHT22;16244;51.956;12.980;2022-09-16T13:41:41;17.60;99.90
29201;DHT22;16244;51.956;12.980;2022-09-16T13:44:38;17.80;99.90
29201;DHT22;16244;51.956;12.980;2022-09-16T13:47:14;17.90;99.90
29201;DHT22;16244;51.956;12.980;2022-09-16T13:49:46;17.80;99.90
29201;DHT22;16244;51.956;12.980;2022-09-16T13:52:19;17.70;99.90
29201;DHT22;16244;51.956;12.980;2022-09-16T13:54:48;17.90;99.90
29201;DHT22;16244;51.956;12.980;2022-09-16T13:57:30;18.10;99.90
29201;DHT22;16244;51.956;12.980;2022-09-16T14:00:12;18.10;99.90
29201;DHT22;16244;51.956;12.980;2022-09-16T14:03:02;18.20;99.90
29201;DHT22;16244;51.956;12.980;2022-09-16T14:05:48;18.10;99.90
29201;DHT22;16244;51.956;12.980;2022-09-16T14:08:23;18.00;99.90
29201;DHT22;16244;51.956;12.980;2022-09-16T14:10:58;17.90;99.90
29201;DHT22;16244;51.956;12.980;2022-09-16T14:13:34;17.80;99.90
29201;DHT22;16244;51.956;12.980;2022-09-16T14:16:11;17.70;99.90
29201;DHT22;16244;51.956;12.980;2022-09-16T14:18:42;17.60;99.90
29201;DHT22;16244;51.956;12.980;2022-09-16T14:21:17;17.50;99.90
29201;DHT22;16244;51.956;12.980;2022-09-16T14:23:44;17.50;99.90
29201;DHT22;16244;51.956;12.980;2022-09-16T14:26:13;17.50;99.90
29201;DHT22;16244;51.956;12.980;2022-09-16T14:28:40;17.50;99.90
29201;DHT22;16244;51.956;12.980;2022-09-16T14:31:14;17.50;99.90
29201;DHT22;16244;51.956;12.980;2022-09-16T14:33:44;17.50;99.90
29201;DHT22;16244;51.956;12.980;2022-09-16T14:36:17;17.50;99.90
29201;DHT22;16244;51.956;12.980;2022-09-16T14:38:49;17.50;99.90
29201;DHT22;16244;51.956;12.980;2022-09-16T14:41:22;17.50;99.90
29201;DHT22;16244;51.956;12.980;2022-09-16T14:43:51;17.50;99.90
29201;DHT22;16244;51.956;12.980;2022-09-16T14:46:20;17.50;99.90
29201;DHT22;16244;51.956;12.980;2022-09-16T14:48:48;17.50;99.90
29201;DHT22;16244;51.956;12.980;2022-09-16T14:51:20;17.40;99.90
29201;DHT22;16244;51.956;12.980;2022-09-16T14:53:56;17.40;99.90
29201;DHT22;16244;51.956;12.980;2022-09-16T14:56:24;17.20;99.90
29201;DHT22;16244;51.956;12.980;2022-09-16T14:58:52;17.10;99.90
29201;DHT22;16244;51.956;12.980;2022-09-16T15:01:24;17.10;99.90
29201;DHT22;16244;51.956;12.980;2022-09-16T15:03:57;17.00;99.90
29201;DHT22;16244;51.956;12.980;2022-09-16T15:06:30;16.90;99.90
29201;DHT22;16244;51.956;12.980;2022-09-16T15:09:03;17.00;99.90
29201;DHT22;16244;51.956;12.980;2022-09-16T15:11:35;17.00;99.90
29201;DHT22;16244;51.956;12.980;2022-09-16T15:14:10;17.10;99.90
29201;DHT22;16244;51.956;12.980;2022-09-16T15:16:43;17.10;99.90
29201;DHT22;16244;51.956;12.980;2022-09-16T15:19:17;17.10;99.90
29201;DHT22;16244;51.956;12.980;2022-09-16T15:21:45;17.30;99.90
29201;DHT22;16244;51.956;12.980;2022-09-16T15:24:17;17.40;99.90
29201;DHT22;16244;51.956;12.980;2022-09-16T15:27:08;17.30;99.90
29201;DHT22;16244;51.956;12.980;2022-09-16T15:29:47;17.10;99.90
29201;DHT22;16244;51.956;12.980;2022-09-16T15:32:22;17.00;99.90
29201;DHT22;16244;51.956;12.980;2022-09-16T15:35:11;16.90;99.90
29201;DHT22;16244;51.956;12.980;2022-09-16T15:37:42;16.90;99.90
29201;DHT22;16244;51.956;12.980;2022-09-16T15:40:31;16.90;99.90
29201;DHT22;16244;51.956;12.980;2022-09-16T15:43:25;16.80;99.90
29201;DHT22;16244;51.956;12.980;2022-09-16T15:46:00;16.70;99.90
29201;DHT22;16244;51.956;12.980;2022-09-16T15:48:43;16.60;99.90
29201;DHT22;16244;51.956;12.980;2022-09-16T15:51:23;16.60;99.90
29201;DHT22;16244;51.956;12.980;2022-09-16T15:53:59;16.60;99.90
29201;DHT22;16244;51.956;12.980;2022-09-16T15:56:33;16.80;99.90
29201;DHT22;16244;51.956;12.980;2022-09-16T15:59:17;16.80;99.90
29201;DHT22;16244;51.956;12.980;2022-09-16T16:01:47;16.80;99.90
29201;DHT22;16244;51.956;12.980;2022-09-16T16:04:25;16.80;99.90